sensor_id;sensor_type;location;lat;lon;timestamp;pressure;altitude;pressure_sealevel;temperature;humidity
80726;BME280;70113;59.928;10.878;2023-08-17T00:00:17;99849.59;;;16.33;76.87
80726;BME280;70113;59.928;10.878;2023-08-17T00:03:03;99848.47;;;16.38;77.97
80726;BME280;70113;59.928;10.878;2023-08-17T00:05:29;99846.56;;;16.42;78.72
80726;BME280;70113;59.928;10.878;2023-08-17T00:08:00;99858.25;;;16.19;77.01
80726;BME280;70113;59.928;10.878;2023-08-17T00:10:26;99849.59;;;16.33;79.43
80726;BME280;70113;59.928;10.878;2023-08-17T00:12:52;99851.78;;;16.25;77.53
80726;BME280;70113;59.928;10.878;2023-08-17T00:15:18;99852.69;;;16.24;76.43
80726;BME280;70113;59.928;10.878;2023-08-17T00:17:43;99842.25;;;16.19;76.73
80726;BME280;70113;59.928;10.878;2023-08-17T00:20:09;99856.59;;;16.16;76.22
80726;BME280;70113;59.928;10.878;2023-08-17T00:22:35;99853.50;;;16.05;76.89
80726;BME280;70113;59.928;10.878;2023-08-17T00:25:01;99858.78;;;16.27;75.78
80726;BME280;70113;59.928;10.878;2023-08-17T00:27:31;99853.63;;;16.23;76.98
80726;BME280;70113;59.928;10.878;2023-08-17T00:29:58;99852.78;;;16.22;76.03
80726;BME280;70113;59.928;10.878;2023-08-17T00:32:23;99874.25;;;16.19;76.88
80726;BME280;70113;59.928;10.878;2023-08-17T00:34:49;99872.50;;;16.18;76.92
80726;BME280;70113;59.928;10.878;2023-08-17T00:37:14;99871.06;;;16.11;76.53
80726;BME280;70113;59.928;10.878;2023-08-17T00:39:40;99878.34;;;16.07;75.54
80726;BME280;70113;59.928;10.878;2023-08-17T00:42:06;99868.75;;;16.03;77.92
80726;BME280;70113;59.928;10.878;2023-08-17T00:44:33;99876.38;;;16.11;77.47
80726;BME280;70113;59.928;10.878;2023-08-17T00:46:59;99864.00;;;15.89;75.44
80726;BME280;70113;59.928;10.878;2023-08-17T00:49:25;99867.22;;;15.98;76.17
80726;BME280;70113;59.928;10.878;2023-08-17T00:51:51;99866.84;;;16.05;77.02
80726;BME280;70113;59.928;10.878;2023-08-17T00:54:23;99878.47;;;16.25;76.69
80726;BME280;70113;59.928;10.878;2023-08-17T00:56:50;99876.38;;;16.11;74.92
80726;BME280;70113;59.928;10.878;2023-08-17T00:59:16;99879.06;;;16.11;76.32
80726;BME280;70113;59.928;10.878;2023-08-17T01:01:42;99882.59;;;16.11;76.22
80726;BME280;70113;59.928;10.878;2023-08-17T01:04:08;99879.28;;;16.06;76.13
80726;BME280;70113;59.928;10.878;2023-08-17T01:06:34;99896.38;;;15.80;75.71
80726;BME280;70113;59.928;10.878;2023-08-17T01:08:59;99895.31;;;15.84;75.69
80726;BME280;70113;59.928;10.878;2023-08-17T01:11:37;99893.59;;;16.04;76.51
80726;BME280;70113;59.928;10.878;2023-08-17T01:14:19;99900.78;;;15.81;77.25
80726;BME280;70113;59.928;10.878;2023-08-17T01:17:02;99891.09;;;15.79;76.99
80726;BME280;70113;59.928;10.878;2023-08-17T01:19:29;99896.44;;;15.99;76.99
80726;BME280;70113;59.928;10.878;2023-08-17T01:22:02;99891.59;;;15.88;76.21
80726;BME280;70113;59.928;10.878;2023-08-17T01:24:29;99898.53;;;15.92;75.73
80726;BME280;70113;59.928;10.878;2023-08-17T01:26:54;99906.38;;;15.75;76.47
80726;BME280;70113;59.928;10.878;2023-08-17T01:29:21;99925.31;;;15.89;75.61
80726;BME280;70113;59.928;10.878;2023-08-17T01:34:19;99929.53;;;15.73;76.64
80726;BME280;70113;59.928;10.878;2023-08-17T01:36:53;99937.66;;;15.70;76.52
80726;BME280;70113;59.928;10.878;2023-08-17T01:39:24;99924.28;;;15.71;77.34
80726;BME280;70113;59.928;10.878;2023-08-17T01:41:52;99941.28;;;15.69;77.26
80726;BME280;70113;59.928;10.878;2023-08-17T01:44:20;99954.22;;;15.56;78.67
80726;BME280;70113;59.928;10.878;2023-08-17T01:46:46;99948.94;;;15.55;78.83
80726;BME280;70113;59.928;10.878;2023-08-17T01:49:12;99948.81;;;15.58;78.47
80726;BME280;70113;59.928;10.878;2023-08-17T01:51:37;99957.22;;;15.70;77.92
80726;BME280;70113;59.928;10.878;2023-08-17T01:54:03;99941.31;;;15.45;77.63
80726;BME280;70113;59.928;10.878;2023-08-17T01:56:29;99964.34;;;15.46;77.54
80726;BME280;70113;59.928;10.878;2023-08-17T01:58:55;99967.13;;;15.43;78.21
80726;BME280;70113;59.928;10.878;2023-08-17T02:01:20;99962.50;;;15.48;77.80
80726;BME280;70113;59.928;10.878;2023-08-17T02:03:46;99961.63;;;15.48;77.43
80726;BME280;70113;59.928;10.878;2023-08-17T02:06:11;99955.75;;;15.62;77.64
80726;BME280;70113;59.928;10.878;2023-08-17T02:08:37;99953.66;;;15.70;77.03
80726;BME280;70113;59.928;10.878;2023-08-17T02:11:03;99965.69;;;15.80;76.79
80726;BME280;70113;59.928;10.878;2023-08-17T02:13:29;99966.81;;;15.75;76.48
80726;BME280;70113;59.928;10.878;2023-08-17T02:15:55;99974.06;;;15.71;75.72
80726;BME280;70113;59.928;10.878;2023-08-17T02:18:20;99972.75;;;15.59;76.05
80726;BME280;70113;59.928;10.878;2023-08-17T02:20:46;99973.59;;;15.60;77.50
80726;BME280;70113;59.928;10.878;2023-08-17T02:23:12;99979.44;;;15.69;76.44
80726;BME280;70113;59.928;10.878;2023-08-17T02:25:38;99985.66;;;15.70;75.41
80726;BME280;70113;59.928;10.878;2023-08-17T02:28:04;99972.00;;;15.78;76.10
80726;BME280;70113;59.928;10.878;2023-08-17T02:30:30;99986.81;;;15.85;74.26
80726;BME280;70113;59.928;10.878;2023-08-17T02:32:56;99975.06;;;15.68;75.79
80726;BME280;70113;59.928;10.878;2023-08-17T02:35:22;99985.25;;;15.79;74.71
80726;BME280;70113;59.928;10.878;2023-08-17T02:37:47;99963.41;;;15.71;76.45
80726;BME280;70113;59.928;10.878;2023-08-17T02:40:13;99974.34;;;15.63;76.35
80726;BME280;70113;59.928;10.878;2023-08-17T02:42:39;99983.97;;;15.67;75.16
80726;BME280;70113;59.928;10.878;2023-08-17T02:45:06;99986.69;;;15.66;76.24
80726;BME280;70113;59.928;10.878;2023-08-17T02:47:32;99993.72;;;15.67;76.64
80726;BME280;70113;59.928;10.878;2023-08-17T02:49:58;99989.84;;;15.54;76.81
80726;BME280;70113;59.928;10.878;2023-08-17T02:52:24;99982.34;;;15.41;75.78
80726;BME280;70113;59.928;10.878;2023-08-17T02:54:49;99993.53;;;15.49;76.07
80726;BME280;70113;59.928;10.878;2023-08-17T02:57:15;100003.97;;;15.56;75.58
80726;BME280;70113;59.928;10.878;2023-08-17T02:59:41;99996.19;;;15.49;77.14
80726;BME280;70113;59.928;10.878;2023-08-17T03:02:07;100006.53;;;15.59;75.54
80726;BME280;70113;59.928;10.878;2023-08-17T03:04:32;100012.97;;;15.53;77.24
80726;BME280;70113;59.928;10.878;2023-08-17T03:06:59;100013.75;;;15.32;76.04
80726;BME280;70113;59.928;10.878;2023-08-17T03:09:24;100004.91;;;15.31;77.76
80726;BME280;70113;59.928;10.878;2023-08-17T03:11:51;100016.97;;;15.41;77.26
80726;BME280;70113;59.928;10.878;2023-08-17T03:14:16;100018.19;;;15.09;77.20
80726;BME280;70113;59.928;10.878;2023-08-17T03:16:42;100018.97;;;15.35;77.05
80726;BME280;70113;59.928;10.878;2023-08-17T03:19:08;100015.56;;;15.31;77.28
80726;BME280;70113;59.928;10.878;2023-08-17T03:21:37;100027.53;;;15.43;77.29
80726;BME280;70113;59.928;10.878;2023-08-17T03:24:03;100019.78;;;15.37;76.36
80726;BME280;70113;59.928;10.878;2023-08-17T03:26:28;100026.00;;;15.37;76.49
80726;BME280;70113;59.928;10.878;2023-08-17T03:28:54;100026.88;;;15.38;77.69
80726;BME280;70113;59.928;10.878;2023-08-17T03:31:21;100035.66;;;15.40;77.16
80726;BME280;70113;59.928;10.878;2023-08-17T03:33:47;100030.41;;;15.38;77.00
80726;BME280;70113;59.928;10.878;2023-08-17T03:36:13;100024.75;;;15.46;76.81
80726;BME280;70113;59.928;10.878;2023-08-17T03:38:38;100017.75;;;15.43;76.25
80726;BME280;70113;59.928;10.878;2023-08-17T03:41:05;100029.06;;;15.50;75.18
80726;BME280;70113;59.928;10.878;2023-08-17T03:43:31;100039.97;;;15.44;75.60
80726;BME280;70113;59.928;10.878;2023-08-17T03:45:56;100040.50;;;15.52;75.39
80726;BME280;70113;59.928;10.878;2023-08-17T03:48:22;100037.47;;;15.39;75.15
80726;BME280;70113;59.928;10.878;2023-08-17T03:50:52;100041.50;;;15.49;74.01
80726;BME280;70113;59.928;10.878;2023-08-17T03:53:18;100051.00;;;15.57;73.97
80726;BME280;70113;59.928;10.878;2023-08-17T03:55:48;100057.34;;;15.53;76.12
80726;BME280;70113;59.928;10.878;2023-08-17T03:58:14;100063.72;;;15.50;74.83
80726;BME280;70113;59.928;10.878;2023-08-17T04:00:40;100063.16;;;15.40;74.36
80726;BME280;70113;59.928;10.878;2023-08-17T04:03:06;100061.28;;;15.44;75.04
80726;BME280;70113;59.928;10.878;2023-08-17T04:05:32;100065.59;;;15.46;74.96
80726;BME280;70113;59.928;10.878;2023-08-17T04:07:59;100068.09;;;15.51;74.37
80726;BME280;70113;59.928;10.878;2023-08-17T04:10:30;100075.03;;;15.55;75.02
80726;BME280;70113;59.928;10.878;2023-08-17T04:12:56;100056.56;;;15.50;73.42
80726;BME280;70113;59.928;10.878;2023-08-17T04:15:22;100067.28;;;15.49;73.79
80726;BME280;70113;59.928;10.878;2023-08-17T04:17:48;100078.78;;;15.49;74.73
80726;BME280;70113;59.928;10.878;2023-08-17T04:20:14;100076.59;;;15.61;73.66
80726;BME280;70113;59.928;10.878;2023-08-17T04:22:39;100072.59;;;15.49;75.20
80726;BME280;70113;59.928;10.878;2023-08-17T04:25:05;100074.63;;;15.42;74.08
80726;BME280;70113;59.928;10.878;2023-08-17T04:27:32;100079.50;;;15.55;73.29
80726;BME280;70113;59.928;10.878;2023-08-17T04:29:58;100082.88;;;15.60;73.18
80726;BME280;70113;59.928;10.878;2023-08-17T04:32:24;100087.22;;;15.62;72.36
80726;BME280;70113;59.928;10.878;2023-08-17T04:34:49;100086.91;;;15.46;73.64
80726;BME280;70113;59.928;10.878;2023-08-17T04:37:15;100085.03;;;15.50;73.26
80726;BME280;70113;59.928;10.878;2023-08-17T04:39:41;100086.28;;;15.40;74.14
80726;BME280;70113;59.928;10.878;2023-08-17T04:42:09;100095.59;;;15.52;74.46
80726;BME280;70113;59.928;10.878;2023-08-17T04:44:35;100090.84;;;15.36;74.68
80726;BME280;70113;59.928;10.878;2023-08-17T04:47:01;100102.34;;;15.38;74.32
80726;BME280;70113;59.928;10.878;2023-08-17T04:49:27;100106.47;;;15.47;73.26
80726;BME280;70113;59.928;10.878;2023-08-17T04:51:52;100102.84;;;15.48;73.77
80726;BME280;70113;59.928;10.878;2023-08-17T04:54:18;100102.25;;;15.40;73.71
80726;BME280;70113;59.928;10.878;2023-08-17T04:56:44;100096.22;;;15.35;74.34
80726;BME280;70113;59.928;10.878;2023-08-17T04:59:10;100105.75;;;15.42;73.58
80726;BME280;70113;59.928;10.878;2023-08-17T05:01:36;100107.31;;;15.47;73.28
80726;BME280;70113;59.928;10.878;2023-08-17T05:04:03;100105.13;;;15.35;74.43
80726;BME280;70113;59.928;10.878;2023-08-17T05:06:29;100120.00;;;15.41;75.07
80726;BME280;70113;59.928;10.878;2023-08-17T05:08:55;100119.19;;;15.39;73.96
80726;BME280;70113;59.928;10.878;2023-08-17T05:11:21;100109.38;;;15.39;74.26
80726;BME280;70113;59.928;10.878;2023-08-17T05:13:47;100098.50;;;15.45;73.38
80726;BME280;70113;59.928;10.878;2023-08-17T05:16:12;100119.91;;;15.44;73.97
80726;BME280;70113;59.928;10.878;2023-08-17T05:18:38;100128.75;;;15.44;73.74
80726;BME280;70113;59.928;10.878;2023-08-17T05:21:04;100118.22;;;15.41;72.60
80726;BME280;70113;59.928;10.878;2023-08-17T05:23:30;100134.88;;;15.46;72.96
80726;BME280;70113;59.928;10.878;2023-08-17T05:25:55;100115.88;;;15.32;73.36
80726;BME280;70113;59.928;10.878;2023-08-17T05:28:21;100135.75;;;15.47;72.92
80726;BME280;70113;59.928;10.878;2023-08-17T05:30:49;100140.31;;;15.43;72.92
80726;BME280;70113;59.928;10.878;2023-08-17T05:33:14;100141.03;;;15.48;72.66
80726;BME280;70113;59.928;10.878;2023-08-17T05:35:40;100136.50;;;15.50;72.74
80726;BME280;70113;59.928;10.878;2023-08-17T05:38:08;100154.97;;;15.55;72.41
80726;BME280;70113;59.928;10.878;2023-08-17T05:40:35;100150.97;;;15.43;72.27
80726;BME280;70113;59.928;10.878;2023-08-17T05:43:01;100152.28;;;15.32;72.62
80726;BME280;70113;59.928;10.878;2023-08-17T05:45:26;100138.16;;;15.30;72.32
80726;BME280;70113;59.928;10.878;2023-08-17T05:47:52;100145.63;;;15.43;72.26
80726;BME280;70113;59.928;10.878;2023-08-17T05:50:18;100150.34;;;15.37;73.25
80726;BME280;70113;59.928;10.878;2023-08-17T05:52:44;100140.75;;;15.31;73.71
80726;BME280;70113;59.928;10.878;2023-08-17T05:55:10;100150.97;;;15.43;71.41
80726;BME280;70113;59.928;10.878;2023-08-17T05:57:35;100158.06;;;15.44;72.61
80726;BME280;70113;59.928;10.878;2023-08-17T06:00:01;100156.53;;;15.37;72.73
80726;BME280;70113;59.928;10.878;2023-08-17T06:02:28;100165.75;;;15.52;72.35
80726;BME280;70113;59.928;10.878;2023-08-17T06:04:53;100171.28;;;15.47;71.55
80726;BME280;70113;59.928;10.878;2023-08-17T06:07:19;100170.44;;;15.45;71.36
80726;BME280;70113;59.928;10.878;2023-08-17T06:09:45;100164.88;;;15.52;72.22
80726;BME280;70113;59.928;10.878;2023-08-17T06:12:11;100178.22;;;15.52;72.09
80726;BME280;70113;59.928;10.878;2023-08-17T06:14:36;100168.59;;;15.47;72.01
80726;BME280;70113;59.928;10.878;2023-08-17T06:17:02;100174.59;;;15.53;72.14
80726;BME280;70113;59.928;10.878;2023-08-17T06:19:28;100184.47;;;15.50;71.76
80726;BME280;70113;59.928;10.878;2023-08-17T06:21:54;100162.63;;;15.41;71.90
80726;BME280;70113;59.928;10.878;2023-08-17T06:24:19;100181.84;;;15.49;71.77
80726;BME280;70113;59.928;10.878;2023-08-17T06:26:45;100181.00;;;15.48;71.21
80726;BME280;70113;59.928;10.878;2023-08-17T06:29:11;100187.03;;;15.54;72.01
80726;BME280;70113;59.928;10.878;2023-08-17T06:31:37;100191.41;;;15.55;71.61
80726;BME280;70113;59.928;10.878;2023-08-17T06:34:03;100189.63;;;15.55;70.68
80726;BME280;70113;59.928;10.878;2023-08-17T06:36:30;100190.56;;;15.54;73.96
80726;BME280;70113;59.928;10.878;2023-08-17T06:38:56;100193.97;;;15.58;71.95
80726;BME280;70113;59.928;10.878;2023-08-17T06:41:22;100196.16;;;15.71;72.07
80726;BME280;70113;59.928;10.878;2023-08-17T06:43:47;100190.97;;;15.67;71.79
80726;BME280;70113;59.928;10.878;2023-08-17T06:46:13;100209.31;;;15.76;71.36
80726;BME280;70113;59.928;10.878;2023-08-17T06:48:39;100200.13;;;15.60;70.49
80726;BME280;70113;59.928;10.878;2023-08-17T06:51:04;100214.84;;;15.71;71.67
80726;BME280;70113;59.928;10.878;2023-08-17T06:53:30;100216.31;;;15.79;71.08
80726;BME280;70113;59.928;10.878;2023-08-17T06:55:56;100207.06;;;15.64;70.61
80726;BME280;70113;59.928;10.878;2023-08-17T06:58:22;100219.94;;;15.78;70.92
80726;BME280;70113;59.928;10.878;2023-08-17T07:00:48;100226.75;;;15.85;70.66
80726;BME280;70113;59.928;10.878;2023-08-17T07:03:13;100227.00;;;15.79;70.49
80726;BME280;70113;59.928;10.878;2023-08-17T07:05:39;100223.66;;;15.74;71.33
80726;BME280;70113;59.928;10.878;2023-08-17T07:08:05;100219.50;;;15.65;70.23
80726;BME280;70113;59.928;10.878;2023-08-17T07:10:31;100230.53;;;15.79;70.51
80726;BME280;70113;59.928;10.878;2023-08-17T07:12:56;100233.84;;;15.86;70.04
80726;BME280;70113;59.928;10.878;2023-08-17T07:15:22;100233.16;;;15.81;69.62
80726;BME280;70113;59.928;10.878;2023-08-17T07:17:48;100235.06;;;15.77;69.84
80726;BME280;70113;59.928;10.878;2023-08-17T07:20:13;100246.72;;;15.75;70.07
80726;BME280;70113;59.928;10.878;2023-08-17T07:22:39;100242.13;;;15.78;70.36
80726;BME280;70113;59.928;10.878;2023-08-17T07:25:05;100232.75;;;15.66;69.37
80726;BME280;70113;59.928;10.878;2023-08-17T07:27:31;100251.31;;;15.69;69.67
80726;BME280;70113;59.928;10.878;2023-08-17T07:29:56;100253.63;;;15.80;70.55
80726;BME280;70113;59.928;10.878;2023-08-17T07:32:22;100256.91;;;15.87;69.18
80726;BME280;70113;59.928;10.878;2023-08-17T07:34:48;100261.06;;;15.94;69.02
80726;BME280;70113;59.928;10.878;2023-08-17T07:37:14;100268.09;;;15.97;67.86
80726;BME280;70113;59.928;10.878;2023-08-17T07:39:39;100253.19;;;15.91;67.47
80726;BME280;70113;59.928;10.878;2023-08-17T07:42:05;100268.22;;;15.93;69.34
80726;BME280;70113;59.928;10.878;2023-08-17T07:44:31;100272.78;;;15.90;69.72
80726;BME280;70113;59.928;10.878;2023-08-17T07:46:57;100272.16;;;15.83;69.04
80726;BME280;70113;59.928;10.878;2023-08-17T07:49:25;100284.31;;;15.90;69.61
80726;BME280;70113;59.928;10.878;2023-08-17T07:51:50;100292.84;;;16.00;68.40
80726;BME280;70113;59.928;10.878;2023-08-17T07:54:16;100290.97;;;16.04;69.58
80726;BME280;70113;59.928;10.878;2023-08-17T07:56:42;100291.09;;;16.01;69.27
80726;BME280;70113;59.928;10.878;2023-08-17T07:59:07;100274.25;;;15.99;68.74
80726;BME280;70113;59.928;10.878;2023-08-17T08:01:33;100296.94;;;16.10;69.84
80726;BME280;70113;59.928;10.878;2023-08-17T08:03:59;100300.47;;;16.11;69.23
80726;BME280;70113;59.928;10.878;2023-08-17T08:06:24;100293.56;;;16.05;68.87
80726;BME280;70113;59.928;10.878;2023-08-17T08:08:50;100302.44;;;16.06;69.64
80726;BME280;70113;59.928;10.878;2023-08-17T08:11:16;100304.19;;;16.07;69.43
80726;BME280;70113;59.928;10.878;2023-08-17T08:13:41;100301.41;;;16.10;69.91
80726;BME280;70113;59.928;10.878;2023-08-17T08:16:07;100300.53;;;16.09;68.71
80726;BME280;70113;59.928;10.878;2023-08-17T08:18:33;100309.19;;;16.16;69.77
80726;BME280;70113;59.928;10.878;2023-08-17T08:20:58;100293.75;;;16.24;69.37
80726;BME280;70113;59.928;10.878;2023-08-17T08:23:25;100296.31;;;16.27;69.07
80726;BME280;70113;59.928;10.878;2023-08-17T08:25:51;100305.94;;;16.31;69.18
80726;BME280;70113;59.928;10.878;2023-08-17T08:28:17;100282.06;;;16.27;69.20
80726;BME280;70113;59.928;10.878;2023-08-17T08:30:42;100308.59;;;16.31;69.04
80726;BME280;70113;59.928;10.878;2023-08-17T08:33:08;100308.59;;;16.31;68.12
80726;BME280;70113;59.928;10.878;2023-08-17T08:35:34;100307.38;;;16.40;69.31
80726;BME280;70113;59.928;10.878;2023-08-17T08:38:00;100300.50;;;16.33;68.26
80726;BME280;70113;59.928;10.878;2023-08-17T08:40:28;100302.16;;;16.37;69.02
80726;BME280;70113;59.928;10.878;2023-08-17T08:42:55;100304.63;;;16.41;69.11
80726;BME280;70113;59.928;10.878;2023-08-17T08:45:22;100294.66;;;16.47;68.94
80726;BME280;70113;59.928;10.878;2023-08-17T08:47:49;100298.28;;;16.46;69.34
80726;BME280;70113;59.928;10.878;2023-08-17T08:50:18;100302.06;;;16.62;68.96
80726;BME280;70113;59.928;10.878;2023-08-17T08:53:00;100298.25;;;16.69;69.21
80726;BME280;70113;59.928;10.878;2023-08-17T08:55:32;100299.16;;;16.68;69.23
80726;BME280;70113;59.928;10.878;2023-08-17T08:58:00;100297.16;;;16.51;67.97
80726;BME280;70113;59.928;10.878;2023-08-17T09:00:26;100294.19;;;16.59;69.07
80726;BME280;70113;59.928;10.878;2023-08-17T09:02:52;100301.03;;;16.66;68.39
80726;BME280;70113;59.928;10.878;2023-08-17T09:05:18;100295.44;;;16.72;67.87
80726;BME280;70113;59.928;10.878;2023-08-17T09:07:52;100283.44;;;16.84;66.64
80726;BME280;70113;59.928;10.878;2023-08-17T09:10:17;100295.91;;;16.83;67.27
80726;BME280;70113;59.928;10.878;2023-08-17T09:12:45;100283.50;;;16.82;67.54
80726;BME280;70113;59.928;10.878;2023-08-17T09:15:11;100292.38;;;16.83;68.40
80726;BME280;70113;59.928;10.878;2023-08-17T09:17:37;100286.91;;;16.86;68.59
80726;BME280;70113;59.928;10.878;2023-08-17T09:20:03;100292.81;;;16.94;69.91
80726;BME280;70113;59.928;10.878;2023-08-17T09:22:42;100277.91;;;16.89;68.14
80726;BME280;70113;59.928;10.878;2023-08-17T09:25:09;100281.75;;;16.81;68.70
80726;BME280;70113;59.928;10.878;2023-08-17T09:27:37;100282.53;;;16.83;69.02
80726;BME280;70113;59.928;10.878;2023-08-17T09:30:08;100265.47;;;16.88;69.49
80726;BME280;70113;59.928;10.878;2023-08-17T09:32:34;100284.53;;;17.00;69.50
80726;BME280;70113;59.928;10.878;2023-08-17T09:35:04;100286.03;;;17.07;69.50
80726;BME280;70113;59.928;10.878;2023-08-17T09:37:31;100278.91;;;17.08;69.25
80726;BME280;70113;59.928;10.878;2023-08-17T09:39:57;100286.16;;;17.04;69.17
80726;BME280;70113;59.928;10.878;2023-08-17T09:42:23;100272.72;;;17.06;69.65
80726;BME280;70113;59.928;10.878;2023-08-17T09:44:51;100266.31;;;17.10;69.60
80726;BME280;70113;59.928;10.878;2023-08-17T09:47:19;100268.81;;;17.15;70.18
80726;BME280;70113;59.928;10.878;2023-08-17T09:49:53;100283.31;;;17.29;69.80
80726;BME280;70113;59.928;10.878;2023-08-17T09:52:21;100282.66;;;17.24;69.65
80726;BME280;70113;59.928;10.878;2023-08-17T09:54:47;100282.25;;;17.34;69.61
80726;BME280;70113;59.928;10.878;2023-08-17T09:57:14;100288.53;;;17.33;69.91
80726;BME280;70113;59.928;10.878;2023-08-17T09:59:40;100287.47;;;17.37;70.02
80726;BME280;70113;59.928;10.878;2023-08-17T10:02:19;100285.34;;;17.45;67.91
80726;BME280;70113;59.928;10.878;2023-08-17T10:04:51;100284.13;;;17.72;67.63
80726;BME280;70113;59.928;10.878;2023-08-17T10:07:20;100292.97;;;17.54;68.67
80726;BME280;70113;59.928;10.878;2023-08-17T10:10:00;100284.25;;;17.49;69.28
80726;BME280;70113;59.928;10.878;2023-08-17T10:12:28;100288.28;;;17.59;70.18
80726;BME280;70113;59.928;10.878;2023-08-17T10:15:08;100293.50;;;17.62;69.13
80726;BME280;70113;59.928;10.878;2023-08-17T10:17:43;100290.56;;;17.68;69.73
80726;BME280;70113;59.928;10.878;2023-08-17T10:20:10;100280.00;;;17.65;69.79
80726;BME280;70113;59.928;10.878;2023-08-17T10:23:01;100281.66;;;17.47;69.04
80726;BME280;70113;59.928;10.878;2023-08-17T10:25:32;100279.88;;;17.48;68.80
80726;BME280;70113;59.928;10.878;2023-08-17T10:27:58;100280.28;;;17.59;69.54
80726;BME280;70113;59.928;10.878;2023-08-17T10:30:26;100288.88;;;17.66;68.47
80726;BME280;70113;59.928;10.878;2023-08-17T10:32:52;100279.50;;;17.77;69.85
80726;BME280;70113;59.928;10.878;2023-08-17T10:35:18;100283.34;;;17.70;68.37
80726;BME280;70113;59.928;10.878;2023-08-17T10:37:44;100296.34;;;17.80;69.77
80726;BME280;70113;59.928;10.878;2023-08-17T10:40:10;100286.44;;;17.82;70.22
80726;BME280;70113;59.928;10.878;2023-08-17T10:42:36;100294.06;;;17.91;69.68
80726;BME280;70113;59.928;10.878;2023-08-17T10:45:27;100297.25;;;17.99;69.46
80726;BME280;70113;59.928;10.878;2023-08-17T10:50:38;100301.69;;;18.00;69.42
80726;BME280;70113;59.928;10.878;2023-08-17T10:53:10;100293.22;;;18.09;70.11
80726;BME280;70113;59.928;10.878;2023-08-17T10:55:41;100300.88;;;18.17;69.42
80726;BME280;70113;59.928;10.878;2023-08-17T10:58:09;100291.28;;;18.13;68.77
80726;BME280;70113;59.928;10.878;2023-08-17T11:00:38;100298.63;;;18.08;66.22
80726;BME280;70113;59.928;10.878;2023-08-17T11:03:08;100298.00;;;18.21;67.24
80726;BME280;70113;59.928;10.878;2023-08-17T11:11:06;100293.75;;;18.36;68.17
80726;BME280;70113;59.928;10.878;2023-08-17T11:13:42;100304.16;;;18.61;67.85
80726;BME280;70113;59.928;10.878;2023-08-17T11:16:10;100288.25;;;18.58;67.91
80726;BME280;70113;59.928;10.878;2023-08-17T11:18:36;100297.75;;;18.65;67.20
80726;BME280;70113;59.928;10.878;2023-08-17T11:21:03;100288.41;;;18.55;65.35
80726;BME280;70113;59.928;10.878;2023-08-17T11:23:30;100292.84;;;18.75;66.08
80726;BME280;70113;59.928;10.878;2023-08-17T11:25:56;100299.25;;;18.90;67.72
80726;BME280;70113;59.928;10.878;2023-08-17T11:28:23;100302.75;;;18.92;67.34
80726;BME280;70113;59.928;10.878;2023-08-17T11:31:00;100287.53;;;18.93;66.26
80726;BME280;70113;59.928;10.878;2023-08-17T11:33:26;100301.06;;;18.89;64.72
80726;BME280;70113;59.928;10.878;2023-08-17T11:35:56;100295.78;;;18.88;65.67
80726;BME280;70113;59.928;10.878;2023-08-17T11:38:22;100298.91;;;18.98;64.27
80726;BME280;70113;59.928;10.878;2023-08-17T11:40:49;100305.00;;;19.19;63.38
80726;BME280;70113;59.928;10.878;2023-08-17T11:43:15;100298.72;;;19.37;63.25
80726;BME280;70113;59.928;10.878;2023-08-17T11:45:41;100303.91;;;19.40;64.44
80726;BME280;70113;59.928;10.878;2023-08-17T11:48:07;100306.19;;;19.48;64.09
80726;BME280;70113;59.928;10.878;2023-08-17T11:50:33;100302.25;;;19.55;64.84
80726;BME280;70113;59.928;10.878;2023-08-17T11:53:01;100295.50;;;19.65;63.12
80726;BME280;70113;59.928;10.878;2023-08-17T11:55:27;100275.91;;;19.63;62.76
80726;BME280;70113;59.928;10.878;2023-08-17T11:57:53;100293.97;;;19.94;62.45
80726;BME280;70113;59.928;10.878;2023-08-17T12:00:20;100297.59;;;19.93;60.73
80726;BME280;70113;59.928;10.878;2023-08-17T12:02:48;100300.78;;;19.84;61.21
80726;BME280;70113;59.928;10.878;2023-08-17T12:05:19;100298.00;;;19.68;61.32
80726;BME280;70113;59.928;10.878;2023-08-17T12:07:45;100293.97;;;19.94;61.98
80726;BME280;70113;59.928;10.878;2023-08-17T12:10:11;100295.81;;;20.10;60.68
80726;BME280;70113;59.928;10.878;2023-08-17T12:12:37;100293.41;;;20.05;60.09
80726;BME280;70113;59.928;10.878;2023-08-17T12:15:06;100297.06;;;20.20;61.02
80726;BME280;70113;59.928;10.878;2023-08-17T12:17:32;100290.00;;;20.51;59.15
80726;BME280;70113;59.928;10.878;2023-08-17T12:19:59;100287.84;;;20.41;58.47
80726;BME280;70113;59.928;10.878;2023-08-17T12:22:25;100312.19;;;20.38;58.68
80726;BME280;70113;59.928;10.878;2023-08-17T12:24:52;100292.06;;;20.45;56.70
80726;BME280;70113;59.928;10.878;2023-08-17T12:27:18;100291.06;;;20.64;57.30
80726;BME280;70113;59.928;10.878;2023-08-17T12:29:50;100302.59;;;20.66;57.32
80726;BME280;70113;59.928;10.878;2023-08-17T12:32:18;100300.63;;;20.85;55.78
80726;BME280;70113;59.928;10.878;2023-08-17T12:34:45;100304.16;;;20.70;55.93
80726;BME280;70113;59.928;10.878;2023-08-17T12:37:11;100299.25;;;20.94;54.77
80726;BME280;70113;59.928;10.878;2023-08-17T12:39:40;100294.19;;;21.04;54.74
80726;BME280;70113;59.928;10.878;2023-08-17T12:42:05;100293.38;;;21.17;53.95
80726;BME280;70113;59.928;10.878;2023-08-17T12:44:31;100293.53;;;21.30;52.42
80726;BME280;70113;59.928;10.878;2023-08-17T12:46:57;100290.06;;;21.28;53.26
80726;BME280;70113;59.928;10.878;2023-08-17T12:49:23;100285.66;;;21.27;52.97
80726;BME280;70113;59.928;10.878;2023-08-17T12:51:49;100275.44;;;21.02;55.18